Time;durP1;ratioP1;P1;durP2;ratioP2;P2;SDS_P1;SDS_P2;PMS_P1;PMS_P2;Temp;Humidity;BMP_temperature;BMP_pressure;BME280_temperature;BME280_humidity;BME280_pressure;Samples;Min_cycle;Max_cycle;Signal;HPM_P1;HPM_P2
2022/05/11 00:01:45;;;;;;;8.33;6.40;;;;;;;18.64;69.26;99911.03;5076703;28;20239;-78
2022/05/11 00:04:12;;;;;;;7.07;6.47;;;;;;;18.63;69.24;99898.78;5075765;28;20722;-78
2022/05/11 00:06:40;;;;;;;7.10;6.40;;;;;;;18.59;69.43;99891.97;5075130;28;20209;-78
2022/05/11 00:09:09;;;;;;;7.83;7.30;;;;;;;18.57;69.64;99891.22;5075478;28;20205;-77
2022/05/11 00:11:36;;;;;;;7.20;6.70;;;;;;;18.56;69.75;99880.75;5075847;28;20246;-79
2022/05/11 00:14:03;;;;;;;6.97;6.37;;;;;;;18.57;69.52;99888.59;5075423;28;20776;-77
2022/05/11 00:16:31;;;;;;;7.00;6.50;;;;;;;18.57;69.60;99887.72;5075376;28;20250;-79
2022/05/11 00:18:57;;;;;;;7.13;6.53;;;;;;;18.54;69.61;99883.47;5074939;28;20311;-79
2022/05/11 00:21:24;;;;;;;6.73;6.33;;;;;;;18.50;69.86;99883.75;5072541;28;20209;-80
2022/05/11 00:23:52;;;;;;;7.00;6.30;;;;;;;18.49;69.93;99880.25;5068103;28;20243;-80
2022/05/11 00:26:20;;;;;;;6.70;6.20;;;;;;;18.52;69.70;99879.22;5076119;28;20679;-79
2022/05/11 00:28:46;;;;;;;7.00;6.50;;;;;;;18.49;69.85;99880.25;5073508;28;20204;-79
2022/05/11 00:31:12;;;;;;;7.03;6.43;;;;;;;18.48;69.80;99877.72;5076732;28;20342;-81
2022/05/11 00:33:39;;;;;;;7.57;7.07;;;;;;;18.48;70.01;99864.50;5076876;28;20693;-81
2022/05/11 00:36:10;;;;;;;7.67;7.07;;;;;;;18.47;69.94;99866.28;5076120;28;20679;-81
2022/05/11 00:38:37;;;;;;;7.10;6.50;;;;;;;18.47;69.75;99861.00;5076685;28;20216;-78
2022/05/11 00:41:03;;;;;;;6.57;6.10;;;;;;;18.38;70.26;99854.47;5076233;28;20208;-80
2022/05/11 00:43:34;;;;;;;6.23;5.83;;;;;;;18.41;70.34;99859.59;5076376;28;20224;-80
2022/05/11 00:46:12;;;;;;;7.40;6.90;;;;;;;18.39;70.02;99855.31;5076607;28;20250;-81
2022/05/11 00:51:28;;;;;;;7.30;6.63;;;;;;;18.37;70.37;99865.97;5072794;28;20209;-80
2022/05/11 00:53:55;;;;;;;7.17;6.47;;;;;;;18.37;70.66;99844.84;5068664;28;20212;-81
2022/05/11 00:56:24;;;;;;;7.73;7.13;;;;;;;18.39;70.23;99857.97;5076135;28;20548;-81
2022/05/11 00:58:56;;;;;;;6.83;6.17;;;;;;;18.38;70.18;99867.69;5075126;28;20702;-80
2022/05/11 01:01:23;;;;;;;7.37;6.77;;;;;;;18.38;70.43;99861.56;5076148;28;20254;-81
2022/05/11 01:03:54;;;;;;;7.10;6.60;;;;;;;18.38;70.06;99869.50;5075986;28;20290;-80
2022/05/11 01:06:23;;;;;;;7.23;6.70;;;;;;;18.36;69.92;99874.03;5076035;28;20228;-81
2022/05/11 01:08:49;;;;;;;8.23;7.17;;;;;;;18.33;70.13;99880.31;5075986;28;20204;-81
2022/05/11 01:11:16;;;;;;;8.30;7.70;;;;;;;18.31;70.63;99878.72;5076314;28;20262;-82
2022/05/11 01:13:45;;;;;;;7.87;7.27;;;;;;;18.31;71.18;99861.06;5076252;28;20260;-81
2022/05/11 01:16:12;;;;;;;8.80;7.87;;;;;;;18.26;72.17;99832.28;5076968;28;20238;-81
2022/05/11 01:18:40;;;;;;;7.83;7.33;;;;;;;18.22;72.88;99814.94;5077205;28;20452;-80
2022/05/11 01:21:08;;;;;;;8.67;8.07;;;;;;;18.21;73.40;99800.00;5075765;28;20205;-82
2022/05/11 01:23:44;;;;;;;7.27;6.80;;;;;;;18.23;73.32;99797.28;5067769;28;20228;-82
2022/05/11 01:26:11;;;;;;;9.90;9.20;;;;;;;18.01;73.37;99803.03;5079032;28;20273;-84
2022/05/11 01:28:43;;;;;;;8.53;7.80;;;;;;;17.94;74.65;99772.63;5078548;28;20205;-81
2022/05/11 01:31:12;;;;;;;8.53;7.93;;;;;;;18.02;74.91;99755.41;5081007;28;20192;-83
2022/05/11 01:33:43;;;;;;;8.37;7.77;;;;;;;18.03;75.30;99746.50;5081034;28;20289;-83
2022/05/11 01:36:19;;;;;;;8.80;8.00;;;;;;;17.99;75.63;99720.41;5080739;28;20211;-84
2022/05/11 01:38:48;;;;;;;9.20;8.50;;;;;;;17.94;76.55;99706.59;5079884;28;20208;-82
2022/05/11 01:41:20;;;;;;;8.97;8.07;;;;;;;17.90;76.77;99684.84;5081732;28;20261;-84
2022/05/11 01:43:46;;;;;;;8.27;7.67;;;;;;;17.89;77.77;99672.56;5073482;28;20217;-81
2022/05/11 01:46:14;;;;;;;7.87;7.37;;;;;;;17.86;78.08;99657.78;5073232;28;20257;-81
2022/05/11 01:48:41;;;;;;;7.87;7.37;;;;;;;17.87;78.03;99666.53;5072479;28;20288;-81
2022/05/11 01:51:07;;;;;;;9.00;8.27;;;;;;;17.89;77.98;99669.09;5070825;28;20676;-81
2022/05/11 01:53:33;;;;;;;9.33;8.53;;;;;;;17.83;77.90;99668.53;5062744;28;20229;-80
2022/05/11 01:56:00;;;;;;;8.73;7.90;;;;;;;17.80;78.09;99665.19;5072714;28;20212;-81
2022/05/11 01:58:28;;;;;;;8.37;7.87;;;;;;;17.80;78.02;99668.69;5072423;28;20674;-81
2022/05/11 02:00:54;;;;;;;8.93;8.13;;;;;;;17.75;78.79;99657.56;5072740;28;20208;-81
2022/05/11 02:03:21;;;;;;;8.97;8.30;;;;;;;17.69;79.15;99643.91;5073370;28;20249;-81
2022/05/11 02:08:32;;;;;;;9.93;9.03;;;;;;;17.60;79.24;99625.03;5073065;28;20204;-81
2022/05/11 02:10:58;;;;;;;9.53;8.83;;;;;;;17.59;79.10;99627.78;5072546;28;20577;-80
2022/05/11 02:13:25;;;;;;;8.50;7.80;;;;;;;17.60;79.09;99621.53;5072689;28;20228;-80
2022/05/11 02:15:53;;;;;;;9.60;8.77;;;;;;;17.57;79.69;99596.19;5072967;28;20231;-81
2022/05/11 02:18:19;;;;;;;9.83;8.93;;;;;;;17.50;79.97;99604.56;5072754;28;20667;-80
2022/05/11 02:20:45;;;;;;;9.30;8.60;;;;;;;17.47;80.46;99592.41;5072072;28;20579;-79
2022/05/11 02:23:14;;;;;;;8.70;8.10;;;;;;;17.42;80.20;99613.81;5062001;28;20287;-80
2022/05/11 02:25:43;;;;;;;9.13;8.53;;;;;;;17.39;80.37;99603.44;5072632;28;20205;-81
2022/05/11 02:28:10;;;;;;;8.57;7.77;;;;;;;17.39;79.79;99613.16;5071746;28;20208;-80
2022/05/11 02:30:36;;;;;;;9.00;8.40;;;;;;;17.36;80.22;99608.91;5076066;28;20302;-81
2022/05/11 02:33:04;;;;;;;9.20;8.50;;;;;;;17.33;79.78;99618.81;5076078;28;20298;-80
2022/05/11 02:35:31;;;;;;;9.37;8.57;;;;;;;17.32;80.22;99610.00;5076251;28;20204;-80
2022/05/11 02:38:00;;;;;;;9.43;8.73;;;;;;;17.26;80.27;99605.13;5076040;28;20212;-81
2022/05/11 02:40:29;;;;;;;8.77;8.07;;;;;;;17.20;80.35;99595.78;5066699;28;20204;-79
2022/05/11 02:42:56;;;;;;;8.73;8.13;;;;;;;17.16;80.49;99602.16;5068679;28;20223;-81
2022/05/11 02:45:23;;;;;;;8.00;7.47;;;;;;;17.23;79.83;99607.94;5075949;28;20204;-80
2022/05/11 02:47:52;;;;;;;8.57;7.77;;;;;;;17.20;79.95;99616.88;5076141;28;20212;-80
2022/05/11 02:50:23;;;;;;;7.70;7.10;;;;;;;17.18;80.06;99615.28;5075463;28;20572;-80
2022/05/11 02:52:49;;;;;;;7.97;7.27;;;;;;;17.13;80.28;99610.28;5076188;28;20235;-79
2022/05/11 02:55:16;;;;;;;7.87;7.20;;;;;;;17.13;80.04;99612.09;5075699;28;20270;-81
2022/05/11 02:57:42;;;;;;;8.30;7.50;;;;;;;17.11;80.24;99614.81;5075973;28;20736;-80
2022/05/11 03:00:12;;;;;;;8.93;8.33;;;;;;;17.03;80.91;99607.34;5074771;28;20263;-80
2022/05/11 03:02:39;;;;;;;8.87;8.07;;;;;;;17.05;80.97;99601.97;5072862;28;20699;-79
2022/05/11 03:05:07;;;;;;;8.53;7.93;;;;;;;17.04;80.97;99600.28;5063848;28;20201;-80
2022/05/11 03:07:34;;;;;;;9.13;8.23;;;;;;;17.04;80.72;99603.75;5073732;28;20200;-79
2022/05/11 03:10:01;;;;;;;9.37;8.57;;;;;;;17.06;80.70;99595.75;5075323;28;20234;-81
2022/05/11 03:12:27;;;;;;;11.77;10.67;;;;;;;17.06;80.87;99593.97;5075290;28;20283;-80
2022/05/11 03:14:54;;;;;;;9.40;8.70;;;;;;;17.01;81.33;99589.94;5075414;28;20674;-80
2022/05/11 03:17:21;;;;;;;8.73;8.13;;;;;;;16.97;81.30;99591.06;5075495;28;20234;-80
2022/05/11 03:19:48;;;;;;;9.40;8.73;;;;;;;16.98;81.53;99593.56;5066329;28;20228;-80
2022/05/11 03:22:14;;;;;;;9.60;8.97;;;;;;;16.97;81.52;99583.97;5070921;28;20288;-80
2022/05/11 03:24:42;;;;;;;9.03;8.33;;;;;;;16.93;81.48;99586.91;5076940;28;20204;-80
2022/05/11 03:27:08;;;;;;;9.60;9.00;;;;;;;16.94;81.82;99562.22;5077218;28;20204;-79
2022/05/11 03:29:35;;;;;;;9.87;9.17;;;;;;;16.94;80.53;99607.03;5077337;28;20644;-82
2022/05/11 03:34:46;;;;;;;10.27;9.50;;;;;;;16.87;82.10;99567.84;5077808;28;20206;-81
2022/05/11 03:37:15;;;;;;;9.47;8.70;;;;;;;16.85;81.89;99561.81;5077748;28;20569;-79
2022/05/11 03:39:43;;;;;;;9.80;9.10;;;;;;;16.85;81.96;99561.81;5067289;28;20254;-80
2022/05/11 03:42:14;;;;;;;10.27;9.23;;;;;;;16.84;82.53;99561.91;5069430;28;20199;-80
2022/05/11 03:44:40;;;;;;;10.13;9.43;;;;;;;16.84;82.42;99565.38;5077764;28;20250;-81
2022/05/11 03:47:07;;;;;;;9.43;8.73;;;;;;;16.81;82.52;99562.06;5077399;28;20740;-82
2022/05/11 03:49:34;;;;;;;9.37;8.57;;;;;;;16.79;82.60;99563.94;5077093;28;20208;-82
2022/05/11 03:52:01;;;;;;;9.73;8.97;;;;;;;16.78;82.72;99556.97;5077638;28;20601;-82
2022/05/11 03:54:28;;;;;;;8.93;8.33;;;;;;;16.79;82.60;99558.69;5077983;28;20225;-80
2022/05/11 03:56:56;;;;;;;10.03;9.37;;;;;;;16.77;82.00;99571.06;5077663;28;20277;-81
2022/05/11 03:59:22;;;;;;;9.43;8.83;;;;;;;16.78;82.60;99562.25;5076671;28;20238;-81
2022/05/11 04:01:48;;;;;;;9.83;8.93;;;;;;;16.80;82.54;99568.28;5077828;28;20233;-81
2022/05/11 04:04:15;;;;;;;10.40;9.47;;;;;;;16.75;83.20;99563.28;5070859;28;20220;-82
2022/05/11 04:06:42;;;;;;;11.27;10.47;;;;;;;16.78;82.54;99562.25;5067770;28;20204;-80
2022/05/11 04:09:09;;;;;;;10.27;9.53;;;;;;;16.77;83.07;99563.16;5076813;28;20208;-82
2022/05/11 04:11:36;;;;;;;10.10;9.40;;;;;;;16.80;82.90;99563.00;5077598;28;20242;-82
2022/05/11 04:14:04;;;;;;;10.47;9.67;;;;;;;16.77;83.09;99563.16;5076310;28;20243;-82
2022/05/11 04:16:30;;;;;;;10.33;9.50;;;;;;;16.81;83.19;99567.34;5077787;28;20229;-81
2022/05/11 04:18:56;;;;;;;9.90;9.20;;;;;;;16.83;83.19;99568.97;5076354;28;20234;-82
2022/05/11 04:21:23;;;;;;;11.00;10.20;;;;;;;16.82;82.81;99582.25;5078004;28;20212;-82
2022/05/11 04:23:49;;;;;;;9.70;9.00;;;;;;;16.84;82.72;99597.00;5076959;28;20273;-82
2022/05/11 04:26:16;;;;;;;10.00;9.33;;;;;;;16.81;83.03;99583.16;5067074;28;20258;-82
2022/05/11 04:28:44;;;;;;;12.33;11.30;;;;;;;16.84;83.02;99585.63;5076621;28;20207;-81
2022/05/11 04:31:13;;;;;;;10.43;9.60;;;;;;;16.87;82.84;99590.75;5077575;28;20207;-82
2022/05/11 04:33:40;;;;;;;11.43;10.67;;;;;;;16.84;83.27;99585.63;5077055;28;20278;-82
2022/05/11 04:36:08;;;;;;;10.63;9.83;;;;;;;16.88;83.26;99579.25;5076797;28;20760;-82
2022/05/11 04:38:34;;;;;;;11.87;10.97;;;;;;;16.85;83.26;99580.28;5077066;28;20276;-82
2022/05/11 04:41:01;;;;;;;10.23;9.50;;;;;;;16.88;83.47;99587.16;5076982;28;20343;-82
2022/05/11 04:43:28;;;;;;;10.53;9.83;;;;;;;16.89;83.13;99599.41;5077677;28;20809;-82
2022/05/11 04:45:56;;;;;;;10.17;9.47;;;;;;;16.85;83.03;99600.53;5076840;28;20203;-81
2022/05/11 04:48:24;;;;;;;9.77;9.17;;;;;;;16.90;82.71;99605.50;5077672;28;20212;-82
2022/05/11 04:50:51;;;;;;;10.87;9.80;;;;;;;16.90;82.91;99602.88;5077305;28;20211;-82
2022/05/11 04:53:18;;;;;;;10.33;9.70;;;;;;;16.88;83.70;99585.34;5077132;28;20314;-82
2022/05/11 04:55:46;;;;;;;9.77;8.97;;;;;;;16.91;83.54;99586.09;5072304;28;20263;-82
2022/05/11 04:58:12;;;;;;;10.23;9.53;;;;;;;16.88;83.92;99582.72;5079737;28;20200;-79
2022/05/11 05:00:38;;;;;;;9.00;8.43;;;;;;;16.91;83.93;99583.47;5088422;28;20238;-81
2022/05/11 05:03:09;;;;;;;10.80;9.87;;;;;;;16.94;84.11;99593.84;5083170;28;20224;-80
2022/05/11 05:05:37;;;;;;;10.83;10.13;;;;;;;16.90;84.14;99587.06;5085283;28;20231;-79
2022/05/11 05:08:04;;;;;;;10.73;9.83;;;;;;;16.97;84.00;99589.25;5082125;28;20329;-80
2022/05/11 05:10:31;;;;;;;10.40;9.70;;;;;;;17.01;83.61;99606.59;5073437;28;20262;-79
2022/05/11 05:13:02;;;;;;;10.87;10.17;;;;;;;17.01;84.00;99608.38;5093785;22;20299;-82
2022/05/11 05:15:30;;;;;;;10.13;9.43;;;;;;;17.03;83.58;99609.97;5064623;28;20231;-81
2022/05/11 05:17:56;;;;;;;9.87;9.17;;;;;;;17.03;83.61;99620.53;5076032;28;20209;-82
2022/05/11 05:20:22;;;;;;;9.80;9.07;;;;;;;17.06;84.15;99609.78;5075197;28;20204;-79
2022/05/11 05:22:50;;;;;;;9.13;8.53;;;;;;;17.09;84.17;99611.41;5080754;28;20208;-80
2022/05/11 05:25:17;;;;;;;10.70;9.90;;;;;;;17.12;84.01;99618.28;5080223;28;20258;-81
2022/05/11 05:27:43;;;;;;;9.73;9.03;;;;;;;17.17;84.08;99616.22;5073627;28;20204;-80
2022/05/11 05:32:55;;;;;;;10.67;9.90;;;;;;;17.21;84.59;99596.66;5080218;28;20225;-82
2022/05/11 05:35:22;;;;;;;10.20;9.50;;;;;;;17.25;84.67;99609.53;5070676;28;20208;-81
2022/05/11 05:37:48;;;;;;;9.43;8.73;;;;;;;17.29;84.81;99604.09;5066400;28;20205;-84
2022/05/11 05:40:16;;;;;;;9.57;8.87;;;;;;;17.35;85.06;99604.56;5067840;28;20204;-80
2022/05/11 05:42:43;;;;;;;10.80;9.97;;;;;;;17.38;84.94;99600.88;5071630;28;20264;-80
2022/05/11 05:45:11;;;;;;;11.20;10.40;;;;;;;17.46;84.73;99601.25;5080132;28;20200;-82
2022/05/11 05:47:38;;;;;;;9.30;8.70;;;;;;;17.53;84.82;99601.75;5080882;28;20208;-84
2022/05/11 05:50:06;;;;;;;9.37;8.60;;;;;;;17.58;84.46;99608.47;5080081;28;20208;-81
2022/05/11 05:52:32;;;;;;;10.10;9.40;;;;;;;17.64;84.17;99625.69;5080873;28;20208;-83
2022/05/11 05:54:59;;;;;;;8.60;8.00;;;;;;;17.66;83.96;99645.78;5081192;28;20230;-82
2022/05/11 05:57:27;;;;;;;8.43;7.83;;;;;;;17.72;83.83;99646.31;5081675;28;20234;-81
2022/05/11 05:59:54;;;;;;;9.77;9.17;;;;;;;17.77;83.88;99650.38;5080119;28;20204;-81
2022/05/11 06:02:20;;;;;;;9.93;9.23;;;;;;;17.80;83.79;99641.41;5080416;28;20628;-81
2022/05/11 06:04:49;;;;;;;10.00;9.20;;;;;;;17.80;84.32;99629.09;5085817;28;20586;-80
2022/05/11 06:07:18;;;;;;;9.17;8.57;;;;;;;17.85;84.62;99624.38;5080559;28;20209;-81
2022/05/11 06:09:44;;;;;;;10.53;9.80;;;;;;;17.89;84.30;99618.94;5074711;28;20205;-77
2022/05/11 06:12:13;;;;;;;8.57;8.07;;;;;;;17.89;84.37;99627.69;5079238;28;20200;-80
2022/05/11 06:14:42;;;;;;;9.20;8.60;;;;;;;17.92;84.35;99622.22;5078721;28;20576;-81
2022/05/11 06:17:13;;;;;;;8.67;8.07;;;;;;;17.96;83.72;99633.47;5059952;28;20300;-80
2022/05/11 06:19:40;;;;;;;8.20;7.60;;;;;;;17.96;83.94;99639.59;5058690;28;20216;-79
2022/05/11 06:22:06;;;;;;;9.20;8.50;;;;;;;17.96;84.45;99626.38;5069495;28;20200;-80
2022/05/11 06:24:33;;;;;;;8.97;8.27;;;;;;;17.94;84.29;99622.13;5077795;28;20228;-81
2022/05/11 06:26:59;;;;;;;9.17;8.57;;;;;;;17.98;84.53;99629.78;5073997;28;20272;-79
2022/05/11 06:29:26;;;;;;;9.40;8.70;;;;;;;18.03;84.14;99634.75;5064767;28;20278;-80
2022/05/11 06:31:54;;;;;;;9.20;8.50;;;;;;;18.06;84.07;99645.13;5077305;28;20311;-78
2022/05/11 06:34:23;;;;;;;9.03;8.37;;;;;;;18.16;83.54;99650.69;5077736;28;20270;-78
2022/05/11 06:36:49;;;;;;;7.97;7.23;;;;;;;18.30;82.62;99661.22;5077543;28;20203;-81
2022/05/11 06:39:15;;;;;;;7.47;7.07;;;;;;;18.39;82.66;99663.28;5071289;28;20224;-80
2022/05/11 06:41:42;;;;;;;9.03;8.33;;;;;;;18.46;82.48;99675.16;5068179;28;20231;-80
2022/05/11 06:44:09;;;;;;;8.47;7.87;;;;;;;18.56;82.02;99687.78;5076612;28;20590;-79
2022/05/11 06:46:36;;;;;;;7.47;7.00;;;;;;;18.63;81.75;99687.28;5076433;28;20226;-80
2022/05/11 06:49:03;;;;;;;8.70;8.00;;;;;;;18.72;81.69;99691.13;5076247;28;20212;-79
2022/05/11 06:51:30;;;;;;;8.43;7.83;;;;;;;18.56;80.78;99703.66;5076791;28;20218;-79
2022/05/11 06:59:33;;;;;;;10.83;9.90;;;;;;;18.64;78.82;99748.94;5022596;28;20198;-81
2022/05/11 07:02:03;;;;;;;11.63;10.83;;;;;;;18.74;77.44;99796.78;5079894;28;20204;-81
2022/05/11 07:04:33;;;;;;;9.00;8.10;;;;;;;18.80;79.42;99765.53;5078562;28;20229;-81
2022/05/11 07:07:02;;;;;;;9.60;8.90;;;;;;;18.87;78.72;99765.16;5052826;28;20212;-81
2022/05/11 07:09:32;;;;;;;8.97;8.37;;;;;;;18.99;79.63;99749.34;5047245;28;20313;-79
2022/05/11 07:14:44;;;;;;;10.47;9.70;;;;;;;19.01;77.30;99803.00;5047779;28;20247;-80
2022/05/11 07:17:10;;;;;;;10.47;9.77;;;;;;;19.04;78.37;99780.78;5047804;28;20266;-79
2022/05/11 07:19:42;;;;;;;9.63;8.93;;;;;;;19.00;73.19;99908.91;5048238;28;20217;-80
2022/05/11 07:22:09;;;;;;;11.23;10.43;;;;;;;19.12;73.44;99920.50;5049083;28;20217;-80
2022/05/11 07:24:35;;;;;;;11.23;10.40;;;;;;;19.24;75.93;99840.34;5049345;28;20256;-79
2022/05/11 07:27:01;;;;;;;10.07;9.27;;;;;;;19.28;75.08;99852.44;5048134;28;20212;-80
2022/05/11 07:29:28;;;;;;;11.00;10.27;;;;;;;19.36;72.75;99902.22;5047842;28;20707;-79
2022/05/11 07:31:54;;;;;;;10.60;9.90;;;;;;;19.36;71.07;99976.31;5049149;28;20671;-78
2022/05/11 07:34:21;;;;;;;10.20;9.43;;;;;;;19.49;70.58;99977.25;5048935;28;20237;-79
2022/05/11 07:36:54;;;;;;;10.03;9.23;;;;;;;19.45;69.54;100011.00;5048242;28;20277;-79
2022/05/11 07:39:20;;;;;;;9.33;8.53;;;;;;;19.51;67.79;100077.78;5046900;28;20284;-80
2022/05/11 07:41:46;;;;;;;9.33;8.70;;;;;;;19.46;66.94;100107.16;5046931;28;20210;-79
2022/05/11 07:44:13;;;;;;;8.47;7.87;;;;;;;19.48;65.16;100126.44;5048275;28;20301;-81
2022/05/11 07:46:39;;;;;;;8.73;8.10;;;;;;;19.56;66.83;100088.91;5048043;28;20683;-81
2022/05/11 07:49:06;;;;;;;8.93;8.23;;;;;;;19.54;65.40;100138.44;5046749;28;20232;-79
2022/05/11 07:51:35;;;;;;;8.83;8.33;;;;;;;19.59;66.08;100128.44;5046009;28;20940;-79
2022/05/11 07:54:03;;;;;;;9.03;8.30;;;;;;;19.66;66.91;100090.03;5045710;28;20242;-79
2022/05/11 08:01:58;;;;;;;8.83;8.23;;;;;;;19.93;67.26;100052.19;5048411;28;20307;-80
2022/05/11 08:04:24;;;;;;;9.13;8.30;;;;;;;19.82;65.03;100124.38;5048489;28;20615;-79
2022/05/11 08:06:51;;;;;;;8.60;7.90;;;;;;;19.86;65.66;100114.44;5048192;28;20209;-78
2022/05/11 08:09:19;;;;;;;8.20;7.63;;;;;;;19.96;66.09;100097.03;5046600;28;20209;-80
2022/05/11 08:11:47;;;;;;;8.43;7.73;;;;;;;19.97;64.88;100126.06;5048409;28;20933;-80
2022/05/11 08:14:14;;;;;;;8.17;7.67;;;;;;;20.03;64.16;100151.34;5049047;28;20233;-81
2022/05/11 08:16:41;;;;;;;8.97;8.37;;;;;;;20.04;63.92;100150.41;5049569;28;20209;-82
2022/05/11 08:19:07;;;;;;;8.47;7.87;;;;;;;20.02;62.45;100187.59;5047823;28;20214;-81
2022/05/11 08:21:34;;;;;;;9.23;8.50;;;;;;;20.03;62.74;100185.78;5048141;28;20239;-81
2022/05/11 08:24:01;;;;;;;8.50;7.80;;;;;;;20.11;64.38;100146.41;5048837;28;20786;-81
2022/05/11 08:26:29;;;;;;;8.63;8.03;;;;;;;20.20;63.02;100167.03;5048201;28;20275;-82
2022/05/11 08:28:55;;;;;;;8.73;8.13;;;;;;;20.19;62.00;100160.00;5048322;28;20217;-80
2022/05/11 08:34:15;;;;;;;7.97;7.40;;;;;;;20.40;62.74;100160.44;5014161;28;20240;-82
2022/05/11 08:36:41;;;;;;;7.97;7.47;;;;;;;20.50;60.86;100212.91;5050765;28;20217;-81
2022/05/11 08:39:08;;;;;;;8.17;7.57;;;;;;;20.54;59.66;100254.19;5047751;28;20213;-83
2022/05/11 08:41:41;;;;;;;7.63;7.03;;;;;;;20.54;58.33;100307.22;5048581;28;20222;-82
2022/05/11 08:44:11;;;;;;;7.27;6.77;;;;;;;20.66;58.38;100306.47;5048538;28;20237;-82
2022/05/11 08:46:53;;;;;;;8.33;7.57;;;;;;;20.67;58.74;100270.19;5048662;28;20213;-82
2022/05/11 08:49:23;;;;;;;7.40;6.80;;;;;;;20.85;59.17;100281.41;5047003;28;20207;-81
2022/05/11 08:51:56;;;;;;;7.27;6.53;;;;;;;20.89;57.74;100310.31;5050122;28;20209;-83
2022/05/11 08:54:31;;;;;;;7.00;6.50;;;;;;;21.00;58.53;100304.31;5049335;28;20261;-81
2022/05/11 08:57:00;;;;;;;6.80;6.30;;;;;;;21.07;56.39;100344.56;5049586;28;20224;-82
2022/05/11 08:59:29;;;;;;;6.77;6.30;;;;;;;21.13;56.80;100352.13;5047971;28;20267;-80
2022/05/11 09:02:01;;;;;;;7.30;6.90;;;;;;;21.16;56.50;100363.41;5049085;28;20216;-80
2022/05/11 09:04:38;;;;;;;7.10;6.70;;;;;;;21.17;54.85;100361.63;5048052;28;20221;-81
2022/05/11 09:07:04;;;;;;;6.50;6.10;;;;;;;21.30;54.67;100396.19;5047582;28;20201;-80
2022/05/11 09:09:31;;;;;;;5.97;5.57;;;;;;;21.40;54.52;100408.75;5046530;28;20306;-83
2022/05/11 09:11:59;;;;;;;6.03;5.63;;;;;;;21.48;53.80;100439.31;5046658;28;20228;-83
2022/05/11 09:14:31;;;;;;;6.17;5.60;;;;;;;21.50;52.75;100456.00;5046386;28;20229;-81
2022/05/11 09:16:57;;;;;;;5.53;5.03;;;;;;;21.66;54.24;100381.50;5047649;28;20554;-81
2022/05/11 09:19:27;;;;;;;6.07;5.67;;;;;;;21.75;53.53;100444.66;5049499;28;20283;-79
2022/05/11 09:21:57;;;;;;;5.80;5.40;;;;;;;21.68;51.88;100468.09;5053460;28;20236;-79
2022/05/11 09:24:30;;;;;;;5.83;5.50;;;;;;;21.79;53.61;100470.06;5054542;28;20240;-81
2022/05/11 09:27:10;;;;;;;5.80;5.50;;;;;;;21.79;52.49;100473.56;5049205;28;20213;-80
2022/05/11 09:29:40;;;;;;;5.57;5.17;;;;;;;21.83;52.16;100494.66;5045738;28;20251;-82
2022/05/11 09:32:23;;;;;;;6.67;6.07;;;;;;;21.94;53.14;100445.16;5046212;28;20197;-80
2022/05/11 09:34:50;;;;;;;6.10;5.70;;;;;;;21.96;52.98;100437.94;5046810;28;20255;-81
2022/05/11 09:37:27;;;;;;;5.30;5.00;;;;;;;22.05;52.48;100404.56;5046793;28;20243;-80
2022/05/11 09:39:56;;;;;;;6.40;6.00;;;;;;;21.96;50.95;100463.63;5049096;28;20205;-82
2022/05/11 09:42:32;;;;;;;6.40;5.63;;;;;;;22.06;53.04;100478.03;5050173;28;20235;-81
2022/05/11 09:44:59;;;;;;;6.10;5.70;;;;;;;22.01;51.63;100466.84;5050167;28;20312;-80
2022/05/11 09:47:28;;;;;;;6.73;6.23;;;;;;;22.15;51.98;100444.66;5050104;28;20751;-84
2022/05/11 09:49:56;;;;;;;6.30;5.93;;;;;;;22.18;51.44;100460.41;5049961;28;20731;-84
2022/05/11 09:52:32;;;;;;;5.77;5.37;;;;;;;22.16;50.86;100471.16;5050485;28;20209;-82
2022/05/11 09:55:00;;;;;;;6.40;6.00;;;;;;;22.23;51.05;100474.25;5050404;28;20315;-80
2022/05/11 09:57:29;;;;;;;5.97;5.57;;;;;;;22.29;51.63;100457.91;5050744;28;20209;-83
2022/05/11 10:00:17;;;;;;;5.57;5.17;;;;;;;22.30;51.55;100483.56;5049469;28;20209;-80
2022/05/11 10:02:47;;;;;;;5.97;5.47;;;;;;;22.46;52.03;100458.56;5049748;28;20255;-80
2022/05/11 10:05:17;;;;;;;5.67;5.27;;;;;;;22.55;50.64;100469.41;5049304;28;20554;-81
2022/05/11 10:07:46;;;;;;;5.60;5.20;;;;;;;22.70;50.93;100445.38;5049582;28;20205;-80
2022/05/11 10:10:23;;;;;;;4.33;4.03;;;;;;;22.77;48.91;100489.22;5048332;28;20270;-82
2022/05/11 10:12:52;;;;;;;5.07;4.70;;;;;;;22.83;48.54;100518.06;5049725;28;20259;-84
2022/05/11 10:23:59;;;;;;;4.30;4.10;;;;;;;23.31;46.55;100542.28;5049363;28;20967;-79
2022/05/11 10:26:34;;;;;;;4.63;4.27;;;;;;;23.39;47.01;100574.56;5049245;28;20201;-82
2022/05/11 10:29:17;;;;;;;4.57;4.17;;;;;;;23.51;46.31;100607.47;5048218;28;20247;-80
2022/05/11 10:31:54;;;;;;;4.53;4.10;;;;;;;23.62;44.97;100616.53;5048040;28;20629;-82
2022/05/11 10:34:32;;;;;;;4.80;4.00;;;;;;;23.82;44.95;100621.31;5048572;28;20370;-84
2022/05/11 10:37:06;;;;;;;3.87;3.63;;;;;;;23.91;45.16;100659.81;5048564;28;20240;-78
2022/05/11 10:39:43;;;;;;;6.47;3.93;;;;;;;24.11;46.45;100605.88;5046893;28;20210;-81
2022/05/11 10:42:13;;;;;;;4.47;3.60;;;;;;;24.15;44.79;100611.84;5048598;28;20263;-80
2022/05/11 10:44:54;;;;;;;3.67;3.37;;;;;;;24.07;43.68;100671.06;5048507;28;20268;-81
2022/05/11 10:47:43;;;;;;;6.20;4.43;;;;;;;24.09;44.35;100658.47;5048493;28;20214;-84
2022/05/11 10:50:20;;;;;;;4.17;3.87;;;;;;;24.13;43.44;100691.13;5047121;28;20247;-79
2022/05/11 10:53:01;;;;;;;3.73;3.53;;;;;;;23.96;42.90;100685.19;5048520;28;20244;-82
2022/05/11 10:55:32;;;;;;;3.70;3.40;;;;;;;23.91;43.08;100695.31;5048724;28;20643;-81
2022/05/11 10:58:16;;;;;;;9.37;3.73;;;;;;;24.07;43.17;100675.56;5049151;28;20279;-82
2022/05/11 11:00:47;;;;;;;4.10;3.70;;;;;;;24.23;42.86;100680.63;5047459;28;20211;-83
2022/05/11 11:03:35;;;;;;;3.87;3.53;;;;;;;24.41;43.69;100679.28;5047821;28;20230;-81
2022/05/11 11:09:09;;;;;;;3.83;3.43;;;;;;;24.75;41.48;100723.06;5046970;28;20689;-82
2022/05/11 11:11:44;;;;;;;4.20;3.80;;;;;;;24.61;40.93;100733.91;5047909;28;20205;-80
2022/05/11 11:14:11;;;;;;;3.37;3.10;;;;;;;24.40;40.82;100763.00;5048248;28;20328;-79
2022/05/11 11:16:41;;;;;;;4.50;4.10;;;;;;;24.47;41.44;100729.53;5047165;28;20229;-79
2022/05/11 11:19:09;;;;;;;3.90;3.60;;;;;;;24.55;40.49;100726.34;5048387;28;20715;-79
2022/05/11 11:21:40;;;;;;;4.27;3.30;;;;;;;24.75;40.77;100731.06;5047520;28;20553;-83
2022/05/11 11:24:14;;;;;;;4.40;3.30;;;;;;;24.96;40.41;100741.13;5048138;28;20280;-81
2022/05/11 11:26:50;;;;;;;3.70;2.90;;;;;;;25.04;39.49;100775.28;5047904;28;20904;-82
2022/05/11 11:29:23;;;;;;;3.57;3.07;;;;;;;25.34;37.98;100781.03;5048125;28;20212;-79
2022/05/11 11:32:13;;;;;;;4.27;3.80;;;;;;;26.01;38.54;100821.47;5047150;28;20215;-84
2022/05/11 11:34:41;;;;;;;3.57;3.23;;;;;;;26.75;36.36;100825.34;5047028;28;20240;-81
2022/05/11 11:37:47;;;;;;;3.37;3.17;;;;;;;27.14;37.13;100884.72;5045870;28;20244;-81
2022/05/11 11:40:36;;;;;;;4.37;3.90;;;;;;;26.93;35.25;100892.66;5045272;28;20212;-78
2022/05/11 11:46:04;;;;;;;4.50;4.10;;;;;;;27.03;36.54;100867.81;5044336;28;20284;-79
2022/05/11 11:48:33;;;;;;;5.13;3.70;;;;;;;27.70;34.64;100891.72;5045979;28;20219;-80
2022/05/11 11:51:01;;;;;;;4.30;3.90;;;;;;;26.57;35.55;100931.25;5045500;28;20193;-82
2022/05/11 11:53:35;;;;;;;4.90;3.50;;;;;;;26.38;36.16;100893.50;5045324;28;20253;-79
2022/05/11 11:56:34;;;;;;;4.07;3.43;;;;;;;26.50;36.66;100845.22;5045860;28;20240;-79
2022/05/11 11:59:05;;;;;;;4.33;4.00;;;;;;;26.33;36.06;100859.06;5045488;28;20215;-77
2022/05/11 12:01:35;;;;;;;5.57;3.67;;;;;;;27.16;35.24;100881.91;5046703;28;20291;-79
2022/05/11 12:04:10;;;;;;;5.23;3.90;;;;;;;27.29;36.17;100890.69;5045821;28;20224;-78
2022/05/11 12:15:04;;;;;;;7.53;4.13;;;;;;;29.11;31.88;100951.25;5046323;28;20267;-79
2022/05/11 12:17:35;;;;;;;4.40;4.00;;;;;;;30.22;31.99;100964.53;5047069;28;20212;-84
2022/05/11 12:20:07;;;;;;;3.90;3.70;;;;;;;29.72;31.59;100989.78;5046769;28;20274;-82
2022/05/11 12:22:40;;;;;;;6.30;3.77;;;;;;;29.25;31.44;100982.28;5048086;28;20209;-80
2022/05/11 12:25:13;;;;;;;4.23;3.93;;;;;;;27.41;33.65;100953.16;5047717;28;20712;-82
2022/05/11 12:27:39;;;;;;;6.53;3.53;;;;;;;27.79;35.13;100878.53;5048969;28;20213;-81
2022/05/11 12:30:09;;;;;;;3.43;3.20;;;;;;;27.54;35.23;100851.94;5048551;28;20221;-82